Time;durP1;ratioP1;P1;durP2;ratioP2;P2;SDS_P1;SDS_P2;PMS_P1;PMS_P2;Temp;Humidity;BMP_temperature;BMP_pressure;BME280_temperature;BME280_humidity;BME280_pressure;Samples;Min_cycle;Max_cycle;Signal;HPM_P1;HPM_P2
2023/07/20 00:00:53;;;;;;;;;;;;;;;27.58;100.00;98933.38;5060984;28;19916;-76
2023/07/20 00:03:22;;;;;;;;;;;;;;;27.53;100.00;98936.91;5060459;28;19947;-75
2023/07/20 00:05:48;;;;;;;;;;;;;;;27.49;100.00;98924.94;5061414;28;20367;-76
2023/07/20 00:08:14;;;;;;;;;;;;;;;27.47;100.00;98923.56;5062249;28;19970;-77
2023/07/20 00:10:40;;;;;;;;;;;;;;;27.41;100.00;98921.94;5059946;28;19940;-76
2023/07/20 00:13:06;;;;;;;;;;;;;;;27.41;100.00;98932.75;5060773;28;19949;-77
2023/07/20 00:15:31;;;;;;;;;;;;;;;27.36;100.00;98930.03;5062690;28;19917;-77
2023/07/20 00:17:56;;;;;;;;;;;;;;;27.32;100.00;98937.09;5059421;28;19943;-77
2023/07/20 00:20:23;;;;;;;;;;;;;;;27.27;100.00;98933.25;5062588;28;19978;-77
2023/07/20 00:22:51;;;;;;;;;;;;;;;27.21;100.00;98931.66;5062642;28;20373;-78
2023/07/20 00:25:17;;;;;;;;;;;;;;;27.19;100.00;98931.09;5059935;28;20431;-78
2023/07/20 00:27:43;;;;;;;;;;;;;;;27.14;100.00;98944.63;5061630;28;20395;-78
2023/07/20 00:30:09;;;;;;;;;;;;;;;27.10;100.00;98943.50;5059690;28;19916;-77
2023/07/20 00:32:34;;;;;;;;;;;;;;;27.04;100.00;98939.13;5059866;28;20061;-77
2023/07/20 00:34:59;;;;;;;;;;;;;;;27.00;100.00;98951.59;5061027;28;19916;-78
2023/07/20 00:37:25;;;;;;;;;;;;;;;26.96;100.00;98953.19;5056205;28;20450;-77
2023/07/20 00:39:50;;;;;;;;;;;;;;;26.93;100.00;98951.00;5057752;28;19916;-78
2023/07/20 00:42:17;;;;;;;;;;;;;;;26.86;100.00;98948.50;5059146;28;19923;-78
2023/07/20 00:44:44;;;;;;;;;;;;;;;26.84;100.00;98949.84;5061340;28;19999;-78
2023/07/20 00:47:09;;;;;;;;;;;;;;;26.80;100.00;98954.19;5057522;28;20498;-76
2023/07/20 00:49:35;;;;;;;;;;;;;;;26.73;100.00;98943.56;5059011;28;19923;-77
2023/07/20 00:52:01;;;;;;;;;;;;;;;26.69;100.00;98947.03;5059970;28;19997;-78
2023/07/20 00:54:27;;;;;;;;;;;;;;;26.64;100.00;98944.31;5057725;28;19925;-78
2023/07/20 00:56:54;;;;;;;13.20;7.28;;;;;;;26.52;100.00;98935.56;5059300;28;19974;-78
2023/07/20 00:59:20;;;;;;;12.27;6.85;;;;;;;26.45;100.00;98935.81;5056930;28;20450;-78
2023/07/20 01:01:46;;;;;;;10.82;6.65;;;;;;;26.45;100.00;98942.03;5054666;28;20380;-77
2023/07/20 01:04:13;;;;;;;9.80;7.00;;;;;;;26.43;100.00;98927.16;5057542;28;20025;-77
2023/07/20 01:06:38;;;;;;;10.80;7.20;;;;;;;26.38;100.00;98936.06;5056206;28;20435;-76
2023/07/20 01:09:16;;;;;;;7.75;6.63;;;;;;;26.26;100.00;98930.00;5061788;28;20032;-77
2023/07/20 01:11:54;;;;;;;10.98;6.72;;;;;;;26.17;100.00;98934.22;5057974;28;20431;-77
2023/07/20 01:14:20;;;;;;;11.57;6.35;;;;;;;26.23;100.00;98933.22;5062476;28;20505;-77
2023/07/20 01:16:46;;;;;;;12.85;7.10;;;;;;;26.20;100.00;98933.72;5060180;28;20114;-77
2023/07/20 01:19:14;;;;;;;9.00;7.07;;;;;;;26.17;100.00;98933.41;5059086;28;20025;-76
2023/07/20 01:21:51;;;;;;;8.45;6.80;;;;;;;26.08;100.00;98933.09;5059118;28;20038;-78
2023/07/20 01:24:53;;;;;;;9.50;7.18;;;;;;;26.08;100.00;98935.78;5062083;28;20361;-77
2023/07/20 01:27:51;;;;;;;8.80;6.60;;;;;;;26.08;100.00;98941.19;5061139;28;20442;-77
2023/07/20 01:30:20;;;;;;;10.93;7.75;;;;;;;26.09;100.00;98949.03;5071667;28;20048;-77
2023/07/20 01:32:48;;;;;;;10.52;7.50;;;;;;;26.09;100.00;98940.13;5062880;28;20442;-78
2023/07/20 01:35:15;;;;;;;9.85;7.40;;;;;;;26.08;100.00;98941.19;5079656;28;20047;-77
2023/07/20 01:37:44;;;;;;;7.45;6.78;;;;;;;26.09;100.00;98945.53;5066110;28;20425;-77
2023/07/20 01:40:11;;;;;;;10.20;6.90;;;;;;;26.02;100.00;98942.22;5077225;28;20074;-77
2023/07/20 01:42:36;;;;;;;13.48;6.63;;;;;;;26.02;100.00;98942.22;5079226;28;20139;-77
2023/07/20 01:45:02;;;;;;;10.32;7.45;;;;;;;26.04;100.00;98943.59;5079292;28;20036;-77
2023/07/20 01:47:28;;;;;;;10.43;7.60;;;;;;;25.97;100.00;98942.19;5080046;28;20115;-76
2023/07/20 01:49:53;;;;;;;8.68;7.80;;;;;;;25.78;100.00;98951.72;5064665;28;20488;-77
2023/07/20 01:52:19;;;;;;;8.63;7.07;;;;;;;25.47;100.00;98950.56;5079395;28;20392;-78
2023/07/20 01:54:45;;;;;;;7.53;6.93;;;;;;;25.51;100.00;98949.81;5077483;28;20025;-77
2023/07/20 01:57:10;;;;;;;10.05;7.47;;;;;;;25.57;100.00;98956.91;5080791;28;19915;-78
2023/07/20 01:59:36;;;;;;;14.13;8.05;;;;;;;25.46;100.00;98965.97;5075806;28;20029;-77
2023/07/20 02:02:02;;;;;;;9.87;8.20;;;;;;;25.50;100.00;98972.50;5062202;28;20484;-77
2023/07/20 02:04:27;;;;;;;9.07;6.93;;;;;;;25.54;100.00;98987.13;5080402;28;20036;-77
2023/07/20 02:06:53;;;;;;;8.15;6.82;;;;;;;25.64;100.00;98995.38;5080437;28;20040;-77
2023/07/20 02:09:19;;;;;;;12.30;7.95;;;;;;;25.62;100.00;98986.69;5083190;28;20035;-78
2023/07/20 02:11:45;;;;;;;9.88;7.53;;;;;;;25.67;100.00;98989.47;5080955;28;20074;-77
2023/07/20 02:14:10;;;;;;;9.20;7.03;;;;;;;25.68;100.00;98996.47;5065440;28;20455;-77
2023/07/20 02:16:36;;;;;;;7.95;6.97;;;;;;;25.63;100.00;98999.13;5084757;28;20120;-77
2023/07/20 02:19:02;;;;;;;9.00;7.23;;;;;;;25.61;100.00;98989.66;5082561;28;20060;-76
2023/07/20 02:21:27;;;;;;;9.80;6.50;;;;;;;25.65;100.00;99001.59;5067412;28;20028;-77
2023/07/20 02:23:53;;;;;;;13.83;7.40;;;;;;;25.64;100.00;99005.34;5045195;28;20043;-76
2023/07/20 02:26:20;;;;;;;13.13;7.10;;;;;;;25.63;100.00;99004.53;5081920;28;20272;-77
2023/07/20 02:28:46;;;;;;;9.50;7.90;;;;;;;25.68;100.00;99007.28;5084461;28;20758;-76
2023/07/20 02:31:12;;;;;;;12.73;7.10;;;;;;;25.73;100.00;99003.84;5063467;28;20028;-77
2023/07/20 02:33:37;;;;;;;11.23;7.10;;;;;;;25.73;100.00;99006.56;5082130;28;20035;-76
2023/07/20 02:36:03;;;;;;;9.00;7.22;;;;;;;25.73;100.00;99003.03;5086423;28;20468;-78
2023/07/20 02:38:28;;;;;;;10.60;7.22;;;;;;;25.72;100.00;99007.63;5081213;28;20468;-77
2023/07/20 02:40:54;;;;;;;11.35;6.60;;;;;;;25.75;100.00;99014.38;5066457;28;20123;-78
2023/07/20 02:43:19;;;;;;;7.88;7.10;;;;;;;25.75;100.00;99022.50;5080809;28;20043;-77
2023/07/20 02:45:45;;;;;;;9.40;7.00;;;;;;;25.72;100.00;99012.19;5080305;28;20038;-77
2023/07/20 02:48:10;;;;;;;;;;;;;;;25.71;100.00;99011.38;5062043;28;20070;-76
2023/07/20 02:50:36;;;;;;;8.97;7.73;;;;;;;25.75;100.00;99006.28;5084456;28;19954;-76
2023/07/20 02:53:02;;;;;;;;;;;;;;;25.76;100.00;99008.72;5045419;28;19916;-76
2023/07/20 02:55:27;;;;;;;13.40;7.05;;;;;;;25.77;100.00;99010.38;5084410;28;20414;-76
2023/07/20 02:57:53;;;;;;;;;;;;;;;25.79;100.00;99007.41;5083266;28;19913;-75
2023/07/20 03:00:23;;;;;;;8.03;6.90;;;;;;;25.79;100.00;99012.81;5081988;28;19920;-76
2023/07/20 03:02:52;;;;;;;9.65;7.35;;;;;;;25.71;100.00;99015.97;5078962;28;20027;-75
2023/07/20 03:05:18;;;;;;;7.70;6.90;;;;;;;25.75;100.00;99017.09;5084658;28;19916;-76
2023/07/20 03:07:44;;;;;;;;;;;;;;;25.74;100.00;99016.31;5063926;28;19927;-74
2023/07/20 03:10:10;;;;;;;;;;;;;;;25.64;100.00;99022.38;5065165;28;19916;-76
2023/07/20 03:12:35;;;;;;;;;;;;;;;25.56;100.00;99022.84;5061945;28;19922;-76
2023/07/20 03:15:01;;;;;;;;;;;;;;;25.55;100.00;99029.28;5081091;28;20236;-75
2023/07/20 03:17:27;;;;;;;12.20;7.70;;;;;;;25.53;100.00;99031.41;5082469;28;19935;-76
2023/07/20 03:19:54;;;;;;;10.00;8.00;;;;;;;25.54;100.00;99026.84;5065457;28;20025;-76
2023/07/20 03:22:21;;;;;;;11.32;7.88;;;;;;;25.51;100.00;99033.53;5078733;28;20104;-78
2023/07/20 03:24:47;;;;;;;9.90;7.20;;;;;;;25.50;100.00;99031.94;5082189;28;20508;-79
2023/07/20 03:27:13;;;;;;;7.70;6.83;;;;;;;25.46;100.00;99033.50;5062912;28;20293;-76
2023/07/20 03:29:38;;;;;;;;;;;;;;;25.45;100.00;99045.34;5082915;28;19922;-76
2023/07/20 03:32:05;;;;;;;;;;;;;;;25.43;100.00;99047.50;5083529;28;19922;-75
2023/07/20 03:34:30;;;;;;;;;;;;;;;25.44;100.00;99042.94;5070983;28;19917;-76
2023/07/20 03:36:56;;;;;;;;;;;;;;;25.46;100.00;99047.00;5081594;28;19924;-76
2023/07/20 03:39:22;;;;;;;;;;;;;;;25.42;100.00;99040.47;5068269;28;19920;-76
2023/07/20 03:41:47;;;;;;;;;;;;;;;25.40;100.00;99039.91;5082132;28;20022;-76
2023/07/20 03:44:13;;;;;;;;;;;;;;;25.35;100.00;99045.22;5079883;28;19916;-75
2023/07/20 03:46:38;;;;;;;13.40;7.50;;;;;;;25.33;100.00;99047.34;5082583;28;19915;-76
2023/07/20 03:49:06;;;;;;;;;;;;;;;25.32;100.00;99056.56;5080201;28;19923;-77
2023/07/20 03:51:31;;;;;;;;;;;;;;;25.31;100.00;99060.31;5067623;28;20390;-78
2023/07/20 03:53:57;;;;;;;;;;;;;;;25.32;100.00;99061.94;5082759;28;20030;-77
2023/07/20 03:56:22;;;;;;;;;;;;;;;25.31;100.00;99065.72;5082722;28;19924;-76
2023/07/20 03:58:48;;;;;;;;;;;;;;;25.26;100.00;99069.19;5080689;28;19927;-75
2023/07/20 04:01:13;;;;;;;;;;;;;;;25.26;100.00;99068.34;5082130;28;20005;-76
2023/07/20 04:03:39;;;;;;;;;;;;;;;25.16;100.00;99068.19;5082105;28;19920;-78
2023/07/20 04:06:04;;;;;;;;;;;;;;;25.10;100.00;99074.59;5082263;28;19965;-77
2023/07/20 04:08:30;;;;;;;;;;;;;;;25.01;100.00;99074.22;5083126;28;19951;-77
2023/07/20 04:10:55;;;;;;;;;;;;;;;25.02;100.00;99080.44;5080857;28;19934;-77
2023/07/20 04:13:21;;;;;;;;;;;;;;;25.03;100.00;99082.06;5069811;28;19951;-77
2023/07/20 04:15:47;;;;;;;;;;;;;;;25.05;100.00;99096.09;5078133;28;20388;-76
2023/07/20 04:18:12;;;;;;;;;;;;;;;25.05;100.00;99093.41;5061527;28;19931;-76
2023/07/20 04:20:38;;;;;;;;;;;;;;;25.04;100.00;99098.00;5068994;28;19921;-77
2023/07/20 04:23:03;;;;;;;;;;;;;;;25.04;100.00;99097.16;5076687;28;19924;-78
2023/07/20 04:25:30;;;;;;;;;;;;;;;25.04;100.00;99102.56;5063181;28;19958;-77
2023/07/20 04:27:55;;;;;;;;;;;;;;;25.08;100.00;99103.72;5081595;28;20641;-77
2023/07/20 04:30:22;;;;;;;;;;;;;;;25.06;100.00;99111.25;5080045;28;20066;-76
2023/07/20 04:32:48;;;;;;;;;;;;;;;25.08;100.00;99111.84;5079799;28;19943;-77
2023/07/20 04:35:16;;;;;;;;;;;;;;;25.02;100.00;99115.53;5083288;28;19928;-77
2023/07/20 04:37:45;;;;;;;;;;;;;;;25.07;100.00;99112.88;5078267;28;19938;-77
2023/07/20 04:40:15;;;;;;;;;;;;;;;25.09;100.00;99116.16;5070657;28;19927;-77
2023/07/20 04:42:40;;;;;;;;;;;;;;;25.09;100.00;99116.16;5077585;28;20265;-77
2023/07/20 04:45:06;;;;;;;;;;;;;;;25.10;100.00;99117.78;5078905;28;19927;-78
2023/07/20 04:47:32;;;;;;;;;;;;;;;25.06;100.00;99116.66;5070504;28;20269;-78
2023/07/20 04:49:57;;;;;;;;;;;;;;;25.08;100.00;99119.94;5083756;28;19975;-78
2023/07/20 04:52:23;;;;;;;;;;;;;;;25.07;100.00;99123.69;5061680;28;19924;-77
2023/07/20 04:54:49;;;;;;;;;;;;;;;25.08;100.00;99119.94;5059719;28;19920;-78
2023/07/20 04:57:15;;;;;;;;;;;;;;;25.11;100.00;99127.53;5038837;28;19998;-78
2023/07/20 04:59:45;;;;;;;;;;;;;;;25.10;100.00;99133.97;5068781;28;19963;-78
2023/07/20 05:02:10;;;;;;;;;;;;;;;25.08;100.00;99126.16;5081784;28;20458;-79
2023/07/20 05:04:36;;;;;;;;;;;;;;;25.11;100.00;99124.81;5060891;28;19920;-78
2023/07/20 05:07:01;;;;;;;;;;;;;;;25.08;100.00;99130.72;5082185;28;19928;-77
2023/07/20 05:09:27;;;;;;;;;;;;;;;25.06;100.00;99130.16;5079993;28;19988;-78
2023/07/20 05:11:52;;;;;;;;;;;;;;;25.07;100.00;99129.09;5046373;28;19924;-78
2023/07/20 05:14:17;;;;;;;;;;;;;;;25.10;100.00;99139.38;5082207;28;19920;-78
2023/07/20 05:16:43;;;;;;;;;;;;;;;25.13;100.00;99133.50;5061983;28;19972;-77
2023/07/20 05:19:09;;;;;;;;;;;;;;;25.16;100.00;99133.00;5068747;28;20117;-76
2023/07/20 05:21:35;;;;;;;;;;;;;;;25.20;100.00;99134.16;5063365;28;19920;-78
2023/07/20 05:24:00;;;;;;;;;;;;;;;25.17;100.00;99145.44;5077728;28;20115;-76
2023/07/20 05:26:26;;;;;;;;;;;;;;;25.22;100.00;99148.22;5062447;28;20107;-77
2023/07/20 05:28:51;;;;;;;;;;;;;;;25.25;100.00;99147.72;5078946;28;19924;-77
2023/07/20 05:31:17;;;;;;;;;;;;;;;25.25;100.00;99150.44;5079178;28;19920;-77
2023/07/20 05:33:42;;;;;;;;;;;;;;;25.32;100.00;99159.19;5078515;28;19928;-82
2023/07/20 05:36:08;;;;;;;;;;;;;;;25.40;100.00;99161.44;5068492;28;19920;-79
2023/07/20 05:38:33;;;;;;;;;;;;;;;25.46;100.00;99160.44;5081203;28;19920;-78
2023/07/20 05:41:00;;;;;;;;;;;;;;;25.56;100.00;99160.66;5086525;28;20007;-78
2023/07/20 05:43:25;;;;;;;;;;;;;;;25.65;100.00;99169.94;5084059;28;20412;-78
2023/07/20 05:45:50;;;;;;;;;;;;;;;25.72;100.00;99168.94;5082597;28;20002;-77
2023/07/20 05:48:16;;;;;;;;;;;;;;;25.79;100.00;99172.28;5083673;28;19966;-80
2023/07/20 05:50:43;;;;;;;;;;;;;;;25.82;100.00;99171.75;5086216;28;19920;-81
2023/07/20 05:53:08;;;;;;;;;;;;;;;25.88;100.00;99168.06;5081029;28;20391;-80
2023/07/20 05:55:34;;;;;;;;;;;;;;;25.92;100.00;99174.63;5082677;28;19974;-81
2023/07/20 05:58:00;;;;;;;;;;;;;;;25.90;100.00;99169.47;5084992;28;19923;-81
2023/07/20 06:00:26;;;;;;;;;;;;;;;25.90;100.00;99179.44;5086034;28;19924;-81
2023/07/20 06:02:54;;;;;;;;;;;;;;;25.96;100.00;99183.84;5113308;22;19928;-75
2023/07/20 06:05:21;;;;;;;;;;;;;;;26.00;100.00;99182.28;5102276;28;20292;-74
2023/07/20 06:07:46;;;;;;;;;;;;;;;26.02;100.00;99191.78;5104196;28;20414;-74
2023/07/20 06:10:11;;;;;;;;;;;;;;;25.94;100.00;99180.56;5102505;28;19965;-74
2023/07/20 06:12:37;;;;;;;;;;;;;;;25.93;100.00;99189.75;5105590;28;19924;-75
2023/07/20 06:15:03;;;;;;;;;;;;;;;26.06;100.00;99186.69;5101224;28;20023;-75
2023/07/20 06:17:28;;;;;;;;;;;;;;;26.07;100.00;99185.59;5104511;28;19919;-75
2023/07/20 06:19:54;;;;;;;;;;;;;;;25.90;100.00;99174.88;5102917;28;19920;-75
2023/07/20 06:22:19;;;;;;;;;;;;;;;25.96;100.00;99179.28;5103304;28;19924;-75
2023/07/20 06:24:44;;;;;;;;;;;;;;;26.01;100.00;99178.50;5104098;28;19919;-75
2023/07/20 06:27:10;;;;;;;;;;;;;;;26.06;100.00;99179.38;5083821;28;19920;-75
2023/07/20 06:29:35;;;;;;;;;;;;;;;26.10;100.00;99176.97;5105096;28;20329;-75
2023/07/20 06:32:00;;;;;;;;;;;;;;;26.19;100.00;99175.47;5099707;28;19927;-74
2023/07/20 06:34:26;;;;;;;;;;;;;;;26.25;100.00;99185.31;5097626;28;19961;-72
2023/07/20 06:36:51;;;;;;;;;;;;;;;26.30;100.00;99185.38;5102919;28;20007;-74
2023/07/20 06:39:16;;;;;;;;;;;;;;;26.33;100.00;99187.56;5102639;28;20076;-73
2023/07/20 06:41:42;;;;;;;;;;;;;;;26.36;100.00;99187.06;5101961;28;19947;-74
2023/07/20 06:44:07;;;;;;;;;;;;;;;26.33;100.00;99184.84;5103881;28;20394;-75
2023/07/20 06:46:33;;;;;;;;;;;;;;;26.36;100.00;99181.66;5099985;28;19928;-75
2023/07/20 06:48:58;;;;;;;;;;;;;;;26.43;100.00;99187.69;5102904;28;19919;-75
2023/07/20 06:51:23;;;;;;;;;;;;;;;26.47;100.00;99190.69;5100728;28;19924;-77
2023/07/20 06:53:49;;;;;;;21.08;5.80;;;;;;;26.51;100.00;99191.00;5101927;28;19928;-74
2023/07/20 06:56:15;;;;;;;14.23;5.63;;;;;;;26.57;100.00;99188.06;5102340;28;20027;-76
2023/07/20 06:58:41;;;;;;;59.65;9.45;;;;;;;26.60;100.00;99179.47;5100667;28;20028;-76
2023/07/20 07:01:07;;;;;;;;;;;;;;;26.60;100.00;99189.47;5102751;28;20027;-76
2023/07/20 07:03:33;;;;;;;;;;;;;;;26.57;100.00;99187.28;5095887;28;19916;-75
2023/07/20 07:05:58;;;;;;;;;;;;;;;26.47;100.00;99188.81;5103600;28;19922;-75
2023/07/20 07:08:24;;;;;;;;;;;;;;;26.45;100.00;99179.28;5100847;28;19923;-78
2023/07/20 07:10:50;;;;;;;;;;;;;;;26.56;100.00;99185.66;5102199;28;20405;-75
2023/07/20 07:13:15;;;;;;;;;;;;;;;26.68;100.00;99186.31;5102429;28;19916;-77
2023/07/20 07:15:40;;;;;;;;;;;;;;;26.78;100.00;99178.28;5101124;28;20019;-74
2023/07/20 07:18:06;;;;;;;;;;;;;;;26.85;100.00;99184.31;5102000;28;19960;-73
2023/07/20 07:20:31;;;;;;;;;;;;;;;26.92;100.00;99187.63;5103505;28;19983;-73
2023/07/20 07:22:57;;;;;;;;;;;;;;;27.02;100.00;99185.03;5101046;28;19963;-71
2023/07/20 07:25:22;;;;;;;;;;;;;;;27.09;100.00;99190.22;5102401;28;19920;-72
2023/07/20 07:27:47;;;;;;;;;;;;;;;27.14;100.00;99193.78;5102184;28;19922;-75
2023/07/20 07:30:13;;;;;;;;;;;;;;;27.19;100.00;99196.53;5100869;28;19919;-74
2023/07/20 07:32:38;;;;;;;;;;;;;;;27.24;100.00;99193.03;5102654;28;20015;-71
2023/07/20 07:35:04;;;;;;;;;;;;;;;27.27;100.00;99190.59;5099618;28;19916;-73
2023/07/20 07:37:29;;;;;;;;;;;;;;;27.28;100.00;99192.25;5096944;28;20393;-72
2023/07/20 07:39:55;;;;;;;;;;;;;;;27.35;100.00;99193.91;5101487;28;19912;-72
2023/07/20 07:42:20;;;;;;;;;;;;;;;27.33;100.00;99196.09;5098606;28;20014;-72
2023/07/20 07:44:46;;;;;;;;;;;;;;;27.35;100.00;99205.56;5099810;28;20378;-72
2023/07/20 07:47:12;;;;;;;;;;;;;;;27.40;100.00;99197.47;5102766;28;19915;-72
2023/07/20 07:49:37;;;;;;;;;;;;;;;27.40;100.00;99202.06;5099471;28;19923;-73
2023/07/20 07:52:02;;;;;;;;;;;;;;;27.50;100.00;99196.75;5102219;28;19915;-72
2023/07/20 07:54:28;;;;;;;;;;;;;;;27.55;100.00;99200.34;5101707;28;20049;-72
2023/07/20 07:56:54;;;;;;;;;;;;;;;27.58;100.00;99193.56;5103648;28;19958;-73
2023/07/20 07:59:19;;;;;;;;;;;;;;;27.52;100.00;99200.03;5094692;28;19920;-72
2023/07/20 08:01:44;;;;;;;;;;;;;;;27.38;100.00;99204.25;5101660;28;19922;-72
2023/07/20 08:04:09;;;;;;;;;;;;;;;27.38;100.00;99204.25;5102000;28;19963;-71
2023/07/20 08:06:35;;;;;;;;;;;;;;;27.48;100.00;99193.47;5098485;28;19915;-72
2023/07/20 08:09:00;;;;;;;;;;;;;;;27.56;100.00;99190.31;5102193;28;19991;-71
2023/07/20 08:11:26;;;;;;;;;;;;;;;27.55;100.00;99180.53;5102933;28;19919;-73
2023/07/20 08:13:51;;;;;;;;;;;;;;;27.58;100.00;99188.97;5100413;28;19919;-71
2023/07/20 08:16:16;;;;;;;;;;;;;;;27.63;100.00;99185.44;5101482;28;19968;-72
2023/07/20 08:18:41;;;;;;;;;;;;;;;27.67;100.00;99186.59;5098750;28;19971;-73
2023/07/20 08:21:07;;;;;;;;;;;;;;;27.70;100.00;99192.28;5098548;28;19955;-73
2023/07/20 08:23:32;;;;;;;;;;;;;;;27.79;100.00;99189.91;5100728;28;20010;-73
2023/07/20 08:25:57;;;;;;;;;;;;;;;27.87;100.00;99192.09;5102563;28;19923;-76
2023/07/20 08:28:23;;;;;;;;;;;;;;;27.97;100.00;99191.34;5099631;28;19927;-79
2023/07/20 08:30:49;;;;;;;;;;;;;;;28.06;100.00;99185.13;5084012;28;20340;-78
2023/07/20 08:33:15;;;;;;;;;;;;;;;28.11;100.00;99187.03;5081418;28;20434;-78
2023/07/20 08:35:41;;;;;;;;;;;;;;;28.15;100.00;99181.94;5100996;28;19923;-81
2023/07/20 08:38:07;;;;;;;;;;;;;;;28.20;100.00;99171.13;5092946;28;19911;-82
2023/07/20 08:40:33;;;;;;;;;;;;;;;28.23;100.00;99174.09;5096762;28;19923;-81
2023/07/20 08:43:00;;;;;;;;;;;;;;;28.28;100.00;99176.00;5103023;28;19912;-81
2023/07/20 08:45:26;;;;;;;;;;;;;;;28.33;100.00;99166.00;5102295;28;20356;-78
2023/07/20 08:47:52;;;;;;;;;;;;;;;28.34;100.00;99153.22;5099410;28;19920;-79
2023/07/20 08:50:18;;;;;;;;;;;;;;;28.35;100.00;99160.28;5101900;28;19911;-79
2023/07/20 08:52:44;;;;;;;;;;;;;;;28.34;100.00;99147.81;5102680;28;19915;-78
2023/07/20 08:55:09;;;;;;;;;;;;;;;28.36;100.00;99161.94;5100182;28;19923;-78
2023/07/20 08:57:36;;;;;;;;;;;;;;;28.34;100.00;99156.75;5101752;28;19916;-79
2023/07/20 09:00:12;;;;;;;;;;;;;;;28.31;100.00;99159.19;5101162;28;19927;-79
2023/07/20 09:02:41;;;;;;;;;;;;;;;28.34;100.00;99150.50;5095226;28;20418;-78
2023/07/20 09:05:07;;;;;;;;;;;;;;;28.40;100.00;99154.88;5102044;28;19923;-79
2023/07/20 09:07:33;;;;;;;;;;;;;;;28.47;100.00;99158.16;5092282;28;19951;-79
2023/07/20 09:09:58;;;;;;;;;;;;;;;28.51;100.00;99151.91;5101181;28;19954;-79
2023/07/20 09:12:24;;;;;;;;;;;;;;;28.56;100.00;99150.31;5102063;28;19919;-79
2023/07/20 09:14:49;;;;;;;;;;;;;;;28.60;100.00;99146.78;5104366;28;20424;-79
2023/07/20 09:17:15;;;;;;;;;;;;;;;28.61;100.00;99153.03;5105301;28;20272;-79
2023/07/20 09:19:47;;;;;;;;;;;;;;;28.65;100.00;99152.19;5102308;28;19915;-79
2023/07/20 09:22:12;;;;;;;;;;;;;;;28.69;100.00;99144.31;5102911;28;19941;-79
2023/07/20 09:24:38;;;;;;;;;;;;;;;28.73;100.00;99135.41;5105831;28;20356;-79
2023/07/20 09:27:04;;;;;;;;;;;;;;;28.74;100.00;99137.06;5103727;28;19980;-79
2023/07/20 09:29:30;;;;;;;;;;;;;;;28.79;100.00;99139.75;5086781;28;19926;-79
2023/07/20 09:32:02;;;;;;;;;;;;;;;28.82;100.00;99135.66;5105103;28;20293;-79
2023/07/20 09:34:33;;;;;;;;;;;;;;;28.86;100.00;99128.63;5103571;28;20469;-79
2023/07/20 09:37:00;;;;;;;;;;;;;;;28.92;100.00;99132.97;5106170;28;19923;-79
2023/07/20 09:39:25;;;;;;;;;;;;;;;28.98;100.00;99131.06;5097135;28;19916;-80
2023/07/20 09:41:51;;;;;;;;;;;;;;;29.02;100.00;99138.41;5100948;28;20323;-79
2023/07/20 09:44:17;;;;;;;;;;;;;;;29.07;100.00;99138.38;5102058;28;20541;-79
2023/07/20 09:46:44;;;;;;;;;;;;;;;29.12;100.00;99137.56;5100039;28;20015;-77
2023/07/20 09:49:09;;;;;;;;;;;;;;;29.14;100.00;99135.41;5103743;28;19916;-79
2023/07/20 09:51:35;;;;;;;;;;;;;;;29.16;100.00;99128.59;5109010;28;19911;-78
2023/07/20 09:54:03;;;;;;;;;;;;;;;29.19;100.00;99127.22;5102288;28;20359;-79
2023/07/20 09:56:30;;;;;;;;;;;;;;;29.22;100.00;99118.50;5102264;28;19931;-79
2023/07/20 09:58:55;;;;;;;;;;;;;;;29.21;100.00;99115.00;5104745;28;19916;-79
2023/07/20 10:01:21;;;;;;;;;;;;;;;29.26;100.00;99103.31;5102805;28;19970;-78
2023/07/20 10:03:47;;;;;;;;;;;;;;;29.27;100.00;99100.31;5104190;28;20327;-79
2023/07/20 10:06:15;;;;;;;;;;;;;;;29.31;100.00;99104.13;5104160;28;20011;-76
2023/07/20 10:08:41;;;;;;;;;;;;;;;29.36;100.00;99094.34;5101049;28;19938;-79
2023/07/20 10:11:07;;;;;;;;;;;;;;;29.41;100.00;99091.59;5107017;28;20469;-78
2023/07/20 10:13:37;;;;;;;;;;;;;;;29.43;100.00;99089.44;5098775;28;20307;-78
2023/07/20 10:16:04;;;;;;;;;;;;;;;29.42;100.00;99088.63;5102497;28;20018;-78
2023/07/20 10:18:41;;;;;;;;;;;;;;;29.48;100.00;99082.06;5104522;28;19923;-78
2023/07/20 10:21:07;;;;;;;;;;;;;;;29.55;100.00;99081.78;5099507;28;19922;-78
2023/07/20 10:23:34;;;;;;;;;;;;;;;29.58;100.00;99076.59;5098811;28;20387;-78
2023/07/20 10:26:00;;;;;;;;;;;;;;;29.60;100.00;99077.13;5088300;28;19923;-78
2023/07/20 10:28:26;;;;;;;;;;;;;;;29.65;100.00;99077.09;5102416;28;19962;-78
2023/07/20 10:30:52;;;;;;;;;;;;;;;29.68;100.00;99076.56;5103961;28;19915;-79
2023/07/20 10:33:19;;;;;;;;;;;;;;;29.69;100.00;99072.72;5104488;28;20155;-77
2023/07/20 10:35:57;;;;;;;;;;;;;;;29.74;100.00;99073.81;5102662;28;19916;-78
2023/07/20 10:38:39;;;;;;;;;;;;;;;29.76;100.00;99077.88;5103345;28;19927;-78
2023/07/20 10:41:15;;;;;;;;;;;;;;;29.79;100.00;99081.94;5100775;28;19927;-79
2023/07/20 10:43:42;;;;;;;;;;;;;;;29.77;99.94;99073.25;5100035;28;20034;-78
2023/07/20 10:46:07;;;;;;;;;;;;;;;29.79;100.00;99073.78;5097015;28;19916;-79
2023/07/20 10:48:33;;;;;;;;;;;;;;;29.86;99.37;99066.16;5102808;28;19927;-79
2023/07/20 10:51:19;;;;;;;;;;;;;;;29.86;99.43;99060.72;5104051;28;19995;-79
2023/07/20 10:53:44;;;;;;;;;;;;;;;29.89;99.67;99054.69;5099673;28;19923;-79
2023/07/20 10:56:14;;;;;;;;;;;;;;;29.96;99.81;99061.50;5103638;28;19915;-79
2023/07/20 10:58:42;;;;;;;;;;;;;;;30.03;98.04;99059.28;5104549;28;19915;-78
2023/07/20 11:01:07;;;;;;;;;;;;;;;30.11;97.58;99057.84;5099701;28;19915;-80
2023/07/20 11:03:34;;;;;;;;;;;;;;;30.16;97.32;99055.09;5096022;28;20454;-79
2023/07/20 11:05:59;;;;;;;;;;;;;;;30.23;96.03;99055.59;5101677;28;19923;-80
2023/07/20 11:08:38;;;;;;;;;;;;;;;30.25;95.86;99045.25;5102465;28;19916;-79
2023/07/20 11:11:21;;;;;;;;;;;;;;;30.26;93.18;99048.78;5101325;28;19919;-77
2023/07/20 11:13:59;;;;;;;;;;;;;;;30.27;93.00;99051.22;5099631;28;19923;-79
2023/07/20 11:16:41;;;;;;;;;;;;;;;30.25;93.38;99042.53;5102423;28;20389;-79
2023/07/20 11:19:14;;;;;;;;;;;;;;;30.30;94.10;99039.75;5094968;28;20260;-79
2023/07/20 11:21:41;;;;;;;;;;;;;;;30.36;94.36;99041.34;5097499;28;19915;-79
2023/07/20 11:24:07;;;;;;;;;;;;;;;30.46;93.30;99043.97;5104009;28;20480;-79
2023/07/20 11:27:01;;;;;;;;;;;;;;;30.50;93.53;99028.75;5074723;28;19951;-79
2023/07/20 11:29:27;;;;;;;;;;;;;;;30.58;93.84;99024.56;5081652;28;20351;-80
2023/07/20 11:31:52;;;;;;;;;;;;;;;30.65;93.25;99024.25;5099911;28;19969;-80
2023/07/20 11:34:18;;;;;;;;;;;;;;;30.72;92.04;99028.28;5101266;28;20351;-80
2023/07/20 11:36:46;;;;;;;;;;;;;;;30.77;91.94;99021.94;5100569;28;20018;-78
2023/07/20 11:39:16;;;;;;;;;;;;;;;30.84;90.71;99016.97;5100425;28;19916;-80
2023/07/20 11:41:47;;;;;;;;;;;;;;;30.89;89.60;99011.47;5100340;28;19915;-77
2023/07/20 11:44:13;;;;;;;;;;;;;;;30.96;88.89;99009.22;5102148;28;19926;-79
2023/07/20 11:46:42;;;;;;;;;;;;;;;31.05;87.54;99012.16;5097023;28;20007;-77
2023/07/20 11:49:07;;;;;;;;;;;;;;;31.12;84.69;99007.97;5101131;28;20364;-79
2023/07/20 11:51:33;;;;;;;;;;;;;;;31.13;86.03;99008.81;5096880;28;20026;-79
2023/07/20 11:53:59;;;;;;;;;;;;;;;31.22;84.94;98996.16;5100911;28;19995;-79
2023/07/20 11:56:25;;;;;;;;;;;;;;;31.28;83.50;98995.78;5102585;28;19920;-79
2023/07/20 11:58:54;;;;;;;;;;;;;;;31.38;82.16;98985.88;5103103;28;19969;-79
2023/07/20 12:01:20;;;;;;;;;;;;;;;31.47;81.20;98984.13;5099855;28;19927;-79
2023/07/20 12:03:47;;;;;;;;;;;;;;;31.49;80.81;98973.72;5098056;28;19916;-79
2023/07/20 12:06:13;;;;;;;;;;;;;;;31.62;82.44;98979.31;5102227;28;19923;-78
2023/07/20 12:08:39;;;;;;;;;;;;;;;31.76;82.24;98973.91;5100039;28;19915;-78
2023/07/20 12:11:05;;;;;;;;;;;;;;;31.82;81.77;98970.00;5105318;28;19984;-80
2023/07/20 12:13:37;;;;;;;;;;;;;;;31.94;81.58;98967.63;5100039;28;20383;-78
2023/07/20 12:16:09;;;;;;;;;;;;;;;32.10;78.16;98960.81;5103593;28;19968;-79
2023/07/20 12:18:35;;;;;;;;;;;;;;;32.34;73.51;98951.75;5099302;28;19998;-78